Time;durP1;ratioP1;P1;durP2;ratioP2;P2;SDS_P1;SDS_P2;PMS_P1;PMS_P2;Temp;Humidity;BMP_temperature;BMP_pressure;BME280_temperature;BME280_humidity;BME280_pressure;Samples;Min_cycle;Max_cycle;Signal;HPM_P1;HPM_P2
2021/03/12 00:02:07;;;;;;;2.97;1.10;;;7.80;99.90;;;;;;5113527;28;20189;-64
2021/03/12 00:04:32;;;;;;;1.80;0.90;;;8.00;99.90;;;;;;5113524;28;20241;-64
2021/03/12 00:06:58;;;;;;;2.43;0.90;;;8.00;99.90;;;;;;5113197;28;20407;-65
2021/03/12 00:09:23;;;;;;;1.57;0.80;;;8.00;99.90;;;;;;5113801;28;20171;-64
2021/03/12 00:11:50;;;;;;;5.90;1.30;;;8.00;99.90;;;;;;5113499;28;20192;-64
2021/03/12 00:14:15;;;;;;;2.30;1.03;;;8.10;99.90;;;;;;5113792;28;20165;-64
2021/03/12 00:16:41;;;;;;;2.20;1.00;;;8.20;99.90;;;;;;5113692;28;20457;-64
2021/03/12 00:19:06;;;;;;;3.10;1.10;;;8.20;99.90;;;;;;5108682;28;20233;-65
2021/03/12 00:21:32;;;;;;;2.13;0.90;;;8.10;99.90;;;;;;5084825;28;20195;-64
2021/03/12 00:23:58;;;;;;;2.23;1.27;;;8.20;99.90;;;;;;5080256;28;20185;-64
2021/03/12 00:26:23;;;;;;;2.63;1.10;;;8.30;99.90;;;;;;5073099;28;20180;-64
2021/03/12 00:28:49;;;;;;;1.37;0.77;;;8.30;99.90;;;;;;5073102;28;20205;-64
2021/03/12 00:31:14;;;;;;;2.20;0.90;;;8.30;99.90;;;;;;5072744;28;20678;-65
2021/03/12 00:33:40;;;;;;;3.43;1.13;;;8.40;99.90;;;;;;5072765;28;20249;-65
2021/03/12 00:36:06;;;;;;;1.77;1.00;;;8.30;99.90;;;;;;5086842;28;20214;-66
2021/03/12 00:38:32;;;;;;;2.93;1.10;;;8.50;99.90;;;;;;5092758;28;20169;-64
2021/03/12 00:41:00;;;;;;;3.37;1.30;;;8.60;99.90;;;;;;5093048;28;20193;-64
2021/03/12 00:43:26;;;;;;;2.50;1.07;;;8.60;99.90;;;;;;5092877;28;20630;-64
2021/03/12 00:45:58;;;;;;;3.53;1.47;;;8.60;99.90;;;;;;5092724;28;20430;-64
2021/03/12 00:48:24;;;;;;;4.53;1.33;;;8.60;99.90;;;;;;5093106;28;20400;-64
2021/03/12 00:50:50;;;;;;;4.33;1.43;;;8.50;99.90;;;;;;5092333;28;20447;-65
2021/03/12 00:53:16;;;;;;;1.10;0.80;;;8.50;99.90;;;;;;5092735;28;20443;-65
2021/03/12 00:55:42;;;;;;;4.03;1.53;;;8.50;99.90;;;;;;5095172;28;20475;-64
2021/03/12 00:58:08;;;;;;;1.87;1.17;;;8.50;99.90;;;;;;5093382;28;20174;-64
2021/03/12 01:00:36;;;;;;;1.53;0.77;;;8.50;99.90;;;;;;5096553;28;20563;-64
2021/03/12 01:03:02;;;;;;;1.97;1.10;;;8.60;99.90;;;;;;5096750;28;20431;-64
2021/03/12 01:05:28;;;;;;;2.50;1.03;;;8.60;99.90;;;;;;5105737;28;20899;-65
2021/03/12 01:07:54;;;;;;;6.13;1.33;;;8.60;99.90;;;;;;5116437;28;20399;-65
2021/03/12 01:10:21;;;;;;;4.67;1.50;;;8.60;99.90;;;;;;5116441;28;20926;-64
2021/03/12 01:12:47;;;;;;;3.20;1.47;;;8.70;99.90;;;;;;5116930;28;20222;-64
2021/03/12 01:15:16;;;;;;;1.90;0.90;;;8.70;99.90;;;;;;5116786;28;20493;-64
2021/03/12 01:17:42;;;;;;;2.97;1.33;;;8.80;99.90;;;;;;5116604;28;20896;-64
2021/03/12 01:20:14;;;;;;;3.17;1.10;;;8.90;99.90;;;;;;5116797;28;20416;-64
2021/03/12 01:22:40;;;;;;;2.80;1.20;;;8.80;99.90;;;;;;5116295;28;20456;-64
2021/03/12 01:25:08;;;;;;;1.67;0.97;;;8.60;99.90;;;;;;5116411;28;20895;-64
2021/03/12 01:27:40;;;;;;;4.03;1.10;;;8.60;99.90;;;;;;5116693;28;20416;-64
2021/03/12 01:30:10;;;;;;;2.47;1.07;;;8.60;99.90;;;;;;5116501;28;20472;-64
2021/03/12 01:32:36;;;;;;;4.17;1.80;;;8.60;99.90;;;;;;5116948;28;20406;-65
2021/03/12 01:35:03;;;;;;;4.00;1.43;;;8.60;99.90;;;;;;5116341;28;20896;-65
2021/03/12 01:37:28;;;;;;;2.03;1.17;;;8.60;99.90;;;;;;5115655;28;20197;-64
2021/03/12 01:39:55;;;;;;;3.97;0.97;;;8.60;99.90;;;;;;5116127;28;20428;-64
2021/03/12 01:42:21;;;;;;;6.73;1.13;;;8.60;99.90;;;;;;5116219;28;20584;-64
2021/03/12 01:44:46;;;;;;;3.33;1.30;;;8.60;99.90;;;;;;5116095;28;20454;-64
2021/03/12 01:47:12;;;;;;;1.67;1.00;;;8.60;99.90;;;;;;5116121;28;20176;-64
2021/03/12 01:52:13;;;;;;;3.77;1.23;;;8.70;99.90;;;;;;5137445;22;20657;-63
2021/03/12 01:54:38;;;;;;;3.47;1.37;;;8.70;99.90;;;;;;5116698;28;20419;-63
2021/03/12 01:57:05;;;;;;;3.20;1.17;;;8.70;99.90;;;;;;5116900;28;20189;-64
2021/03/12 01:59:31;;;;;;;2.27;1.00;;;8.80;99.90;;;;;;5116235;28;20178;-64
2021/03/12 02:01:57;;;;;;;4.37;1.40;;;8.80;99.90;;;;;;5116205;28;20421;-64
2021/03/12 02:04:23;;;;;;;4.00;1.03;;;8.90;99.90;;;;;;5115875;28;20404;-64
2021/03/12 02:06:49;;;;;;;3.77;0.93;;;8.90;99.90;;;;;;5115653;28;20403;-64
2021/03/12 02:09:15;;;;;;;4.60;1.47;;;8.60;99.90;;;;;;5115333;28;20484;-64
2021/03/12 02:11:46;;;;;;;2.70;1.00;;;8.30;99.90;;;;;;5115708;28;20422;-62
2021/03/12 02:14:36;;;;;;;4.33;1.37;;;8.30;99.90;;;;;;5115834;28;20392;-63
2021/03/12 02:17:09;;;;;;;2.23;1.30;;;8.20;99.90;;;;;;5116112;28;20460;-63
2021/03/12 02:19:50;;;;;;;2.57;1.10;;;8.30;99.90;;;;;;5115824;28;20415;-63
2021/03/12 02:22:21;;;;;;;2.70;1.17;;;8.20;99.90;;;;;;5114939;28;20482;-63
2021/03/12 02:24:53;;;;;;;4.00;1.30;;;8.10;99.90;;;;;;5115754;28;20371;-63
2021/03/12 02:27:22;;;;;;;3.73;1.57;;;7.90;99.90;;;;;;5116387;28;20379;-63
2021/03/12 02:29:52;;;;;;;3.07;1.10;;;7.90;99.90;;;;;;5116250;28;20772;-67
2021/03/12 02:32:25;;;;;;;3.20;1.07;;;7.90;99.90;;;;;;5116127;28;20903;-63
2021/03/12 02:34:53;;;;;;;2.90;1.00;;;7.70;99.90;;;;;;5116064;28;20418;-63
2021/03/12 02:37:20;;;;;;;1.83;1.20;;;7.70;99.90;;;;;;5113940;28;20452;-64
2021/03/12 02:39:56;;;;;;;3.63;1.20;;;7.70;99.90;;;;;;5115112;28;20403;-65
2021/03/12 02:42:22;;;;;;;2.70;1.30;;;7.70;99.90;;;;;;5115271;28;20375;-64
2021/03/12 02:44:50;;;;;;;2.13;0.93;;;7.70;99.90;;;;;;5114979;28;20853;-64
2021/03/12 02:47:26;;;;;;;3.63;1.10;;;7.80;99.90;;;;;;5114903;28;20248;-64
2021/03/12 02:49:52;;;;;;;2.77;1.07;;;7.70;99.90;;;;;;5115183;28;20382;-64
2021/03/12 02:52:19;;;;;;;2.60;1.10;;;7.70;99.90;;;;;;5096314;28;20418;-64
2021/03/12 02:54:47;;;;;;;4.10;1.57;;;7.60;99.90;;;;;;5114215;28;20762;-65
2021/03/12 02:57:14;;;;;;;2.97;1.37;;;7.60;99.90;;;;;;5096674;28;20918;-64
2021/03/12 02:59:40;;;;;;;2.57;0.87;;;7.60;99.90;;;;;;5095116;28;20452;-64
2021/03/12 03:02:09;;;;;;;4.33;1.00;;;7.70;99.90;;;;;;5094079;28;20446;-64
2021/03/12 03:04:37;;;;;;;5.50;1.33;;;7.60;99.90;;;;;;5094101;28;20464;-67
2021/03/12 03:07:06;;;;;;;3.33;1.20;;;7.60;99.90;;;;;;5108179;28;20438;-64
2021/03/12 03:09:32;;;;;;;1.83;0.90;;;7.70;99.90;;;;;;5114572;28;20410;-63
2021/03/12 03:11:58;;;;;;;2.20;1.20;;;7.80;99.90;;;;;;5114380;28;20422;-64
2021/03/12 03:14:27;;;;;;;2.83;1.30;;;7.90;99.90;;;;;;5098733;28;20498;-64
2021/03/12 03:16:53;;;;;;;2.00;1.27;;;7.90;99.90;;;;;;5087451;28;20810;-64
2021/03/12 03:19:19;;;;;;;1.90;1.10;;;8.00;99.90;;;;;;5094795;28;20396;-65
2021/03/12 03:21:46;;;;;;;5.70;1.37;;;7.90;99.90;;;;;;5113431;28;20177;-64
2021/03/12 03:24:12;;;;;;;3.27;1.00;;;7.90;99.90;;;;;;5114545;28;20399;-64
2021/03/12 03:26:38;;;;;;;5.93;1.30;;;7.80;99.90;;;;;;5114362;28;20780;-64
2021/03/12 03:29:05;;;;;;;3.47;1.17;;;7.80;99.90;;;;;;5114486;28;20169;-64
2021/03/12 03:31:31;;;;;;;1.20;1.00;;;7.70;99.90;;;;;;5114142;28;20437;-64
2021/03/12 03:33:57;;;;;;;4.30;1.83;;;7.70;99.90;;;;;;5114389;28;20480;-64
2021/03/12 03:36:22;;;;;;;3.70;1.13;;;7.80;99.90;;;;;;5113653;28;20488;-64
2021/03/12 03:38:48;;;;;;;1.80;1.23;;;7.80;99.90;;;;;;5114232;28;20399;-64
2021/03/12 03:41:16;;;;;;;2.60;1.07;;;7.70;99.90;;;;;;5113895;28;20204;-64
2021/03/12 03:43:44;;;;;;;3.00;1.30;;;7.70;99.90;;;;;;5112406;28;20168;-64
2021/03/12 03:46:11;;;;;;;1.73;0.90;;;7.60;99.90;;;;;;5113948;28;20408;-64
2021/03/12 03:48:38;;;;;;;2.47;1.30;;;7.50;99.90;;;;;;5114263;28;20531;-64
2021/03/12 03:51:09;;;;;;;2.50;1.10;;;7.60;99.90;;;;;;5111723;28;20457;-64
2021/03/12 03:53:36;;;;;;;4.40;1.00;;;7.60;99.90;;;;;;5113839;28;20748;-64
2021/03/12 03:56:03;;;;;;;1.77;1.00;;;7.70;99.90;;;;;;5113611;28;20465;-64
2021/03/12 03:58:30;;;;;;;3.13;1.20;;;7.60;99.90;;;;;;5113720;28;20403;-64
2021/03/12 04:00:57;;;;;;;3.43;1.20;;;7.50;99.90;;;;;;5113687;28;20830;-63
2021/03/12 04:03:24;;;;;;;2.77;1.23;;;7.50;99.90;;;;;;5113667;28;20398;-64
2021/03/12 04:05:52;;;;;;;2.40;1.30;;;7.50;99.90;;;;;;5113302;28;20459;-64
2021/03/12 04:08:18;;;;;;;2.87;1.60;;;7.40;99.90;;;;;;5113693;28;20413;-64
2021/03/12 04:10:44;;;;;;;2.77;1.23;;;7.40;99.90;;;;;;5095310;28;20430;-64
2021/03/12 04:13:11;;;;;;;1.87;1.27;;;7.40;99.90;;;;;;5112261;28;20941;-64
2021/03/12 04:15:38;;;;;;;3.47;1.50;;;7.40;99.90;;;;;;5113989;28;20184;-63
2021/03/12 04:18:04;;;;;;;4.00;1.50;;;7.60;99.90;;;;;;5113839;28;20790;-64
2021/03/12 04:20:30;;;;;;;4.17;1.50;;;7.60;99.90;;;;;;5113495;28;20418;-63
2021/03/12 04:22:57;;;;;;;3.03;1.40;;;7.60;99.90;;;;;;5113420;28;20952;-64
2021/03/12 04:25:23;;;;;;;3.50;1.33;;;7.50;99.90;;;;;;5113812;28;20409;-64
2021/03/12 04:27:49;;;;;;;3.77;1.00;;;7.60;99.90;;;;;;5113421;28;20505;-64
2021/03/12 04:30:16;;;;;;;2.50;1.10;;;7.60;99.90;;;;;;5113645;28;20513;-63
2021/03/12 04:32:42;;;;;;;9.70;1.50;;;7.60;99.90;;;;;;5114965;28;20595;-64
2021/03/12 04:35:09;;;;;;;2.97;1.53;;;7.60;99.90;;;;;;5117499;28;20409;-64
2021/03/12 04:37:35;;;;;;;2.93;1.00;;;7.60;99.90;;;;;;5117191;28;20390;-63
2021/03/12 04:40:03;;;;;;;2.97;1.40;;;7.60;99.90;;;;;;5117605;28;20870;-63
2021/03/12 04:42:29;;;;;;;2.07;1.10;;;7.60;99.90;;;;;;5117436;28;20402;-64
2021/03/12 04:44:56;;;;;;;5.80;1.83;;;7.50;99.90;;;;;;5117416;28;20398;-62
2021/03/12 04:47:22;;;;;;;3.30;1.33;;;7.60;99.90;;;;;;5117182;28;20164;-64
2021/03/12 04:49:47;;;;;;;5.00;1.20;;;7.60;99.90;;;;;;5117372;28;20414;-64
2021/03/12 04:52:13;;;;;;;4.00;1.40;;;7.60;99.90;;;;;;5116652;28;20448;-64
2021/03/12 04:54:40;;;;;;;3.70;1.70;;;7.70;99.90;;;;;;5117074;28;20160;-64
2021/03/12 04:57:06;;;;;;;2.93;1.40;;;7.60;99.90;;;;;;5116911;28;20528;-64
2021/03/12 04:59:33;;;;;;;3.70;1.50;;;7.70;99.90;;;;;;5100070;28;20498;-64
2021/03/12 05:01:59;;;;;;;5.07;1.53;;;7.60;99.90;;;;;;5096414;28;20431;-64
2021/03/12 05:04:25;;;;;;;5.80;1.67;;;7.70;99.90;;;;;;5096610;28;20403;-64
2021/03/12 05:06:51;;;;;;;5.83;1.40;;;7.60;99.90;;;;;;5078028;28;20512;-64
2021/03/12 05:09:17;;;;;;;2.33;1.10;;;7.60;99.90;;;;;;5096648;28;20442;-63
2021/03/12 05:11:44;;;;;;;2.50;1.27;;;7.60;99.90;;;;;;5101637;28;20866;-65
2021/03/12 05:14:11;;;;;;;4.83;1.40;;;7.60;99.90;;;;;;5116783;28;20245;-65
2021/03/12 05:16:36;;;;;;;2.67;1.20;;;7.50;99.90;;;;;;5116714;28;20549;-65
2021/03/12 05:19:03;;;;;;;2.77;1.13;;;7.50;99.90;;;;;;5116796;28;20430;-65
2021/03/12 05:21:28;;;;;;;3.73;1.30;;;7.60;99.90;;;;;;5116338;28;20180;-65
2021/03/12 05:23:54;;;;;;;3.10;1.10;;;7.60;99.90;;;;;;5117303;28;20454;-65
2021/03/12 05:26:20;;;;;;;1.93;1.20;;;7.60;99.90;;;;;;5116536;28;20165;-63
2021/03/12 05:28:45;;;;;;;2.87;1.63;;;7.60;99.90;;;;;;5117035;28;20168;-65
2021/03/12 05:31:11;;;;;;;4.37;1.63;;;7.70;99.90;;;;;;5116379;28;20177;-64
2021/03/12 05:33:37;;;;;;;2.80;1.00;;;7.70;99.90;;;;;;5116400;28;20175;-65
2021/03/12 05:36:03;;;;;;;6.17;1.37;;;7.80;99.90;;;;;;5116742;28;20272;-66
2021/03/12 05:38:28;;;;;;;3.13;1.40;;;7.70;99.90;;;;;;5116142;28;20169;-64
2021/03/12 05:40:54;;;;;;;6.50;1.63;;;7.70;99.90;;;;;;5116619;28;20479;-64
2021/03/12 05:43:20;;;;;;;5.53;1.40;;;7.80;99.90;;;;;;5116963;28;20166;-64
2021/03/12 05:45:46;;;;;;;7.93;1.33;;;8.00;99.90;;;;;;5116039;28;20170;-65
2021/03/12 05:48:14;;;;;;;6.00;1.37;;;8.20;99.90;;;;;;5116382;28;20399;-64
2021/03/12 05:50:40;;;;;;;4.33;1.37;;;8.10;99.90;;;;;;5116128;28;20671;-64
2021/03/12 05:53:05;;;;;;;5.50;1.20;;;7.80;99.90;;;;;;5116517;28;20573;-64
2021/03/12 05:55:31;;;;;;;3.60;1.50;;;7.80;99.90;;;;;;5115841;28;20234;-64
2021/03/12 05:57:58;;;;;;;4.90;1.77;;;7.60;99.90;;;;;;5115677;28;20236;-64
2021/03/12 06:00:25;;;;;;;3.60;1.47;;;7.70;99.90;;;;;;5115829;28;20193;-64
2021/03/12 06:02:51;;;;;;;3.70;1.20;;;7.70;99.90;;;;;;5116024;28;20406;-65
2021/03/12 06:05:17;;;;;;;5.37;1.47;;;7.80;99.90;;;;;;5115752;28;20402;-64
2021/03/12 06:07:42;;;;;;;3.40;1.47;;;7.70;99.90;;;;;;5091181;28;20182;-65
2021/03/12 06:10:09;;;;;;;1.77;0.93;;;7.80;99.90;;;;;;5092768;28;20230;-65
2021/03/12 06:12:35;;;;;;;3.13;1.23;;;7.70;99.90;;;;;;5095243;28;20190;-64
2021/03/12 06:15:04;;;;;;;1.40;1.20;;;7.70;99.90;;;;;;5095863;28;20895;-64
2021/03/12 06:17:41;;;;;;;3.30;1.37;;;7.60;99.90;;;;;;5095280;28;20656;-64
2021/03/12 06:20:20;;;;;;;2.80;1.23;;;7.50;99.90;;;;;;5088749;28;20412;-64
2021/03/12 06:22:50;;;;;;;4.03;1.20;;;7.40;99.90;;;;;;5082853;28;20415;-64
2021/03/12 06:25:21;;;;;;;9.40;1.23;;;7.40;99.90;;;;;;5076965;28;20842;-64
2021/03/12 06:27:47;;;;;;;4.93;1.50;;;7.40;99.90;;;;;;5074718;28;20397;-64
2021/03/12 06:30:15;;;;;;;2.60;1.00;;;7.50;99.90;;;;;;5074518;28;20882;-64
2021/03/12 06:32:48;;;;;;;3.00;1.23;;;7.60;99.90;;;;;;5057294;28;20457;-65
2021/03/12 06:35:16;;;;;;;5.80;1.73;;;7.50;99.90;;;;;;5074726;28;20396;-64
2021/03/12 06:37:46;;;;;;;5.80;1.23;;;7.30;99.90;;;;;;5074510;28;20889;-63
2021/03/12 06:40:21;;;;;;;4.10;1.40;;;7.20;99.90;;;;;;5074961;28;20710;-64
2021/03/12 06:43:25;;;;;;;1.83;0.90;;;7.20;99.90;;;;;;5088831;28;20456;-65
2021/03/12 06:45:51;;;;;;;3.63;1.43;;;7.40;99.90;;;;;;5032657;28;20429;-65
2021/03/12 06:48:17;;;;;;;2.83;1.10;;;7.40;99.90;;;;;;5083302;28;20823;-65
2021/03/12 06:50:45;;;;;;;3.80;1.47;;;7.60;99.90;;;;;;5094545;28;20681;-65
2021/03/12 06:53:40;;;;;;;4.33;1.37;;;7.70;99.90;;;;;;5095841;28;20434;-65
2021/03/12 06:56:07;;;;;;;2.50;1.20;;;7.80;99.90;;;;;;5071886;28;20857;-64
2021/03/12 06:58:34;;;;;;;5.60;1.27;;;7.50;99.90;;;;;;5109657;28;20418;-64
2021/03/12 07:01:00;;;;;;;3.20;1.20;;;7.60;99.90;;;;;;5114637;28;20444;-64
2021/03/12 07:03:32;;;;;;;2.10;1.20;;;7.70;99.90;;;;;;5114672;28;20408;-64
2021/03/12 07:06:05;;;;;;;3.20;1.40;;;7.60;99.90;;;;;;5114274;28;20436;-65
2021/03/12 07:08:40;;;;;;;5.67;1.80;;;7.60;99.90;;;;;;5114667;28;20480;-64
2021/03/12 07:11:29;;;;;;;5.70;1.20;;;7.50;99.90;;;;;;5114341;28;20435;-64
2021/03/12 07:13:58;;;;;;;5.33;2.03;;;7.50;99.90;;;;;;5114339;28;20854;-63
2021/03/12 07:16:25;;;;;;;2.90;1.40;;;7.50;99.90;;;;;;5114141;28;20478;-65
2021/03/12 07:18:51;;;;;;;3.57;1.80;;;7.50;99.90;;;;;;5113800;28;20398;-64
2021/03/12 07:21:20;;;;;;;3.23;1.40;;;7.40;99.90;;;;;;5114038;28;20434;-65
2021/03/12 07:23:56;;;;;;;4.73;1.43;;;7.50;99.90;;;;;;5114191;28;20395;-64
2021/03/12 07:26:23;;;;;;;1.40;1.30;;;7.60;99.90;;;;;;5114246;28;20399;-65
2021/03/12 07:28:53;;;;;;;3.77;1.70;;;7.70;99.90;;;;;;5113824;28;20756;-64
2021/03/12 07:31:21;;;;;;;5.80;1.60;;;7.80;99.90;;;;;;5114063;28;20833;-64
2021/03/12 07:33:52;;;;;;;3.87;1.43;;;8.00;99.90;;;;;;5113849;28;20513;-65
2021/03/12 07:36:23;;;;;;;2.50;1.27;;;8.20;99.90;;;;;;5112579;28;20442;-65
2021/03/12 07:38:51;;;;;;;1.60;1.00;;;8.20;99.90;;;;;;5073242;28;20384;-64
2021/03/12 07:41:18;;;;;;;1.77;1.17;;;8.10;99.90;;;;;;5073230;28;20424;-63
2021/03/12 07:43:44;;;;;;;2.40;1.73;;;8.20;99.90;;;;;;5086339;28;20481;-64
2021/03/12 07:46:13;;;;;;;2.10;1.30;;;8.10;99.90;;;;;;5113796;28;20403;-65
2021/03/12 07:48:39;;;;;;;5.20;1.20;;;8.20;99.90;;;;;;5113720;28;20404;-64
2021/03/12 07:51:09;;;;;;;2.60;1.37;;;8.20;99.90;;;;;;5123113;22;20483;-63
2021/03/12 07:53:48;;;;;;;3.47;1.20;;;8.20;99.90;;;;;;5093425;28;20458;-65
2021/03/12 07:56:15;;;;;;;2.47;1.20;;;8.20;99.90;;;;;;5093317;28;20434;-63
2021/03/12 07:58:51;;;;;;;3.57;1.73;;;8.20;99.90;;;;;;5093319;28;20490;-65
2021/03/12 08:01:18;;;;;;;7.80;1.80;;;8.30;99.90;;;;;;5068785;28;20978;-65
2021/03/12 08:03:44;;;;;;;2.70;1.33;;;8.30;99.90;;;;;;5054172;28;20412;-64
2021/03/12 08:06:16;;;;;;;2.10;1.30;;;8.10;99.90;;;;;;5072675;28;20472;-64
2021/03/12 08:08:41;;;;;;;6.80;1.57;;;8.30;99.90;;;;;;5072850;28;20467;-64
2021/03/12 08:11:17;;;;;;;2.40;1.27;;;8.50;99.90;;;;;;5073172;28;20427;-64
2021/03/12 08:13:43;;;;;;;3.43;1.47;;;8.40;99.90;;;;;;5073022;28;20265;-64
2021/03/12 08:16:09;;;;;;;2.30;1.00;;;8.50;99.90;;;;;;5054808;28;20432;-64
2021/03/12 08:18:35;;;;;;;3.30;1.67;;;8.40;99.90;;;;;;5073177;28;20762;-65
2021/03/12 08:21:35;;;;;;;4.13;1.50;;;8.70;99.90;;;;;;5075615;28;20233;-65
2021/03/12 08:24:02;;;;;;;1.73;1.27;;;9.10;99.90;;;;;;5093547;28;20246;-64
2021/03/12 08:26:51;;;;;;;2.93;1.30;;;9.40;99.90;;;;;;5093380;28;20905;-65
2021/03/12 08:29:37;;;;;;;2.23;1.47;;;9.30;99.90;;;;;;5093331;28;20773;-64
2021/03/12 08:32:34;;;;;;;4.13;1.67;;;9.30;99.90;;;;;;5093125;28;20413;-65
2021/03/12 08:35:00;;;;;;;2.40;1.13;;;9.50;99.90;;;;;;5093496;28;20436;-65
2021/03/12 08:37:26;;;;;;;4.97;1.57;;;10.00;99.90;;;;;;5092366;28;20518;-65
2021/03/12 08:40:16;;;;;;;6.00;1.30;;;10.10;99.90;;;;;;5093104;28;20835;-65
2021/03/12 08:43:30;;;;;;;3.53;1.67;;;10.30;99.90;;;;;;5074664;28;20191;-65
2021/03/12 08:46:22;;;;;;;1.97;1.03;;;10.10;99.90;;;;;;5059459;28;20913;-65
2021/03/12 08:48:50;;;;;;;4.10;1.27;;;10.10;99.90;;;;;;5092667;28;20405;-64
2021/03/12 08:51:19;;;;;;;2.90;1.53;;;10.10;99.90;;;;;;5092047;28;20446;-65
2021/03/12 08:53:47;;;;;;;3.30;1.17;;;10.00;99.90;;;;;;5081168;28;20421;-65
2021/03/12 08:56:21;;;;;;;4.70;1.57;;;9.60;99.90;;;;;;5072388;28;21032;-64
2021/03/12 08:58:47;;;;;;;2.40;1.50;;;9.40;99.90;;;;;;5072454;28;20395;-65
2021/03/12 09:01:15;;;;;;;1.73;1.37;;;9.60;99.90;;;;;;5072276;28;20518;-65
2021/03/12 09:03:47;;;;;;;4.73;2.00;;;9.80;99.90;;;;;;5072148;28;20172;-64
2021/03/12 09:06:24;;;;;;;2.67;1.27;;;10.00;99.90;;;;;;5072064;28;20398;-65
2021/03/12 09:08:50;;;;;;;2.00;1.00;;;10.00;99.90;;;;;;5073145;28;20874;-65
2021/03/12 09:11:21;;;;;;;3.00;1.20;;;9.90;99.90;;;;;;5072088;28;20522;-64
2021/03/12 09:13:48;;;;;;;5.17;2.30;;;9.90;99.90;;;;;;5053635;28;20197;-65
2021/03/12 09:16:20;;;;;;;84.00;51.57;;;10.00;99.50;;;;;;5060741;28;20488;-65
2021/03/12 09:18:48;;;;;;;14.20;10.60;;;10.10;99.60;;;;;;5072361;28;20453;-64
2021/03/12 09:21:16;;;;;;;2.80;1.60;;;10.10;98.90;;;;;;5080252;28;20435;-64
2021/03/12 09:23:47;;;;;;;17.30;10.10;;;9.90;98.90;;;;;;5096381;28;20401;-64
2021/03/12 09:26:24;;;;;;;4.23;2.83;;;9.80;99.20;;;;;;5096197;28;20512;-65
2021/03/12 09:28:52;;;;;;;7.30;4.47;;;9.70;99.10;;;;;;5096444;28;20842;-65
2021/03/12 09:31:20;;;;;;;1.90;1.63;;;9.90;99.90;;;;;;5096356;28;20423;-66
2021/03/12 09:33:50;;;;;;;5.60;1.70;;;9.90;99.30;;;;;;5095877;28;20494;-65
2021/03/12 09:36:37;;;;;;;4.13;1.60;;;10.20;99.00;;;;;;5095582;28;20438;-65
2021/03/12 09:39:39;;;;;;;4.23;2.63;;;10.20;98.30;;;;;;5095756;28;20409;-65
2021/03/12 09:42:07;;;;;;;7.23;6.53;;;10.10;98.20;;;;;;5033623;28;20836;-65
2021/03/12 09:44:35;;;;;;;3.23;1.50;;;10.10;98.30;;;;;;5084589;28;20919;-66
2021/03/12 09:47:06;;;;;;;2.60;1.63;;;10.00;98.20;;;;;;5095638;28;20401;-65
2021/03/12 09:49:37;;;;;;;1.93;1.10;;;10.00;98.70;;;;;;5095517;28;20399;-64
2021/03/12 09:52:21;;;;;;;4.37;1.63;;;9.90;99.30;;;;;;5094904;28;21047;-65
2021/03/12 09:54:49;;;;;;;3.90;1.50;;;10.20;98.80;;;;;;5095525;28;20415;-64
2021/03/12 09:57:19;;;;;;;3.60;1.50;;;10.20;98.30;;;;;;5095470;28;20470;-65
2021/03/12 09:59:52;;;;;;;5.77;2.00;;;10.10;98.70;;;;;;5095491;28;20397;-66
2021/03/12 10:02:18;;;;;;;5.40;2.00;;;10.20;98.60;;;;;;5077022;28;20430;-64
2021/03/12 10:04:47;;;;;;;2.20;1.10;;;10.40;98.40;;;;;;5095203;28;20489;-65
2021/03/12 10:07:15;;;;;;;3.63;1.87;;;10.30;98.00;;;;;;5095042;28;20403;-65
2021/03/12 10:09:46;;;;;;;3.70;1.77;;;10.30;98.40;;;;;;5095336;28;20399;-65
2021/03/12 10:12:19;;;;;;;1.90;0.90;;;10.40;98.70;;;;;;5095376;28;20423;-65
2021/03/12 10:14:46;;;;;;;4.47;1.30;;;10.40;98.80;;;;;;5094987;28;20406;-65
2021/03/12 10:17:17;;;;;;;4.30;1.27;;;10.50;98.60;;;;;;5094907;28;20485;-64
2021/03/12 10:19:56;;;;;;;2.50;1.00;;;10.70;99.30;;;;;;5095260;28;20763;-65
2021/03/12 10:22:29;;;;;;;3.83;1.10;;;10.40;98.30;;;;;;5094881;28;20426;-65
2021/03/12 10:25:07;;;;;;;1.60;0.93;;;10.70;98.80;;;;;;5095497;28;20922;-63
2021/03/12 10:27:36;;;;;;;1.73;0.93;;;10.70;98.20;;;;;;5094767;28;20403;-64
2021/03/12 10:30:17;;;;;;;2.27;1.00;;;10.50;98.60;;;;;;5094697;28;20411;-64
2021/03/12 10:32:44;;;;;;;2.20;0.80;;;10.40;99.40;;;;;;5094839;28;20425;-64
2021/03/12 10:35:21;;;;;;;2.17;1.20;;;10.30;99.60;;;;;;5095535;28;20776;-64
2021/03/12 10:37:47;;;;;;;6.03;1.40;;;10.60;99.90;;;;;;5094122;28;20751;-64
2021/03/12 10:40:13;;;;;;;3.20;1.20;;;10.90;99.90;;;;;;5094721;28;20410;-64
2021/03/12 10:42:39;;;;;;;2.47;1.10;;;10.90;99.90;;;;;;5094778;28;20411;-64
2021/03/12 10:45:09;;;;;;;2.70;1.10;;;11.20;99.90;;;;;;5076105;28;20776;-64
2021/03/12 10:47:35;;;;;;;2.40;1.10;;;11.50;99.90;;;;;;5094440;28;20184;-64
2021/03/12 10:50:21;;;;;;;2.40;1.33;;;11.90;99.90;;;;;;5094612;28;20417;-64
2021/03/12 10:52:47;;;;;;;2.40;1.10;;;12.10;99.90;;;;;;5075424;28;20425;-64
2021/03/12 10:55:14;;;;;;;2.60;1.13;;;12.10;99.50;;;;;;5094495;28;20928;-64
2021/03/12 10:57:46;;;;;;;1.60;1.10;;;12.30;99.50;;;;;;5094059;28;20680;-64
2021/03/12 11:00:22;;;;;;;2.60;1.20;;;11.90;99.00;;;;;;5094164;28;20399;-65
2021/03/12 11:02:49;;;;;;;3.23;1.63;;;11.80;99.90;;;;;;5077555;28;20449;-63
2021/03/12 11:05:17;;;;;;;5.30;1.07;;;11.90;99.90;;;;;;5074117;28;20894;-64
2021/03/12 11:07:44;;;;;;;1.30;0.80;;;11.70;99.90;;;;;;5073462;28;20439;-64
2021/03/12 11:10:10;;;;;;;2.13;1.00;;;11.40;99.90;;;;;;5073498;28;20412;-64
2021/03/12 11:12:45;;;;;;;2.20;1.03;;;11.40;99.90;;;;;;5073871;28;20421;-65
2021/03/12 11:15:19;;;;;;;1.60;1.13;;;11.50;99.90;;;;;;5073896;28;20387;-65
2021/03/12 11:17:46;;;;;;;1.83;0.83;;;11.20;99.10;;;;;;5073879;28;20397;-64
2021/03/12 11:20:21;;;;;;;2.67;1.30;;;11.20;98.30;;;;;;5073778;28;20445;-64
2021/03/12 11:22:48;;;;;;;1.97;0.93;;;11.50;96.50;;;;;;5091124;28;20398;-64
2021/03/12 11:25:16;;;;;;;2.97;1.30;;;12.50;96.10;;;;;;5093641;28;20448;-64
2021/03/12 11:27:43;;;;;;;2.90;1.20;;;13.70;93.90;;;;;;5093892;28;20385;-64
2021/03/12 11:30:20;;;;;;;1.73;1.10;;;14.10;91.90;;;;;;5093619;28;20397;-64
2021/03/12 11:32:46;;;;;;;1.60;1.00;;;14.60;91.60;;;;;;5093846;28;20390;-64
2021/03/12 11:35:13;;;;;;;1.53;0.90;;;14.90;90.80;;;;;;5093780;28;20910;-63
2021/03/12 11:37:39;;;;;;;3.00;0.90;;;15.50;87.20;;;;;;5093048;28;20450;-64
2021/03/12 11:40:06;;;;;;;1.60;0.90;;;15.80;85.00;;;;;;5093504;28;20807;-65
2021/03/12 11:42:33;;;;;;;2.80;1.03;;;16.00;83.50;;;;;;5093058;28;20203;-64
2021/03/12 11:44:59;;;;;;;2.50;1.00;;;17.10;83.60;;;;;;5093395;28;20891;-64
2021/03/12 11:47:26;;;;;;;2.10;0.93;;;16.40;78.00;;;;;;5093437;28;20402;-65
2021/03/12 11:49:52;;;;;;;2.30;1.10;;;15.60;77.10;;;;;;5093044;28;20916;-64
2021/03/12 11:52:25;;;;;;;4.17;1.40;;;15.60;80.50;;;;;;5092877;28;20464;-64
2021/03/12 11:54:52;;;;;;;1.87;0.87;;;16.50;77.00;;;;;;5093424;28;20416;-65
2021/03/12 11:57:17;;;;;;;1.60;0.83;;;16.40;74.00;;;;;;5072339;28;20441;-66
2021/03/12 11:59:43;;;;;;;2.13;1.30;;;15.90;75.80;;;;;;5070641;28;20469;-64
2021/03/12 12:02:10;;;;;;;1.87;1.10;;;14.70;78.70;;;;;;5071248;28;20701;-65
2021/03/12 12:04:36;;;;;;;2.30;1.10;;;13.80;81.30;;;;;;5062737;28;20170;-64
2021/03/12 12:07:01;;;;;;;2.30;0.80;;;13.30;83.30;;;;;;5054917;28;20425;-64
2021/03/12 12:09:27;;;;;;;2.90;1.20;;;12.80;83.70;;;;;;5071179;28;20189;-64
2021/03/12 12:11:53;;;;;;;2.30;1.37;;;12.30;83.40;;;;;;5072377;28;20616;-64
2021/03/12 12:14:18;;;;;;;3.67;1.40;;;11.90;83.30;;;;;;5072505;28;20462;-63
2021/03/12 12:16:44;;;;;;;2.60;0.90;;;11.80;82.40;;;;;;5072434;28;20278;-64
2021/03/12 12:19:14;;;;;;;3.53;0.90;;;11.70;81.00;;;;;;5051534;28;20276;-65
2021/03/12 12:21:40;;;;;;;2.40;1.00;;;12.00;83.00;;;;;;5074758;28;20948;-65
2021/03/12 12:24:07;;;;;;;1.33;0.90;;;13.40;78.20;;;;;;5072210;28;20397;-64
2021/03/12 12:26:33;;;;;;;1.87;0.80;;;14.60;75.80;;;;;;5072431;28;20398;-64
2021/03/12 12:29:00;;;;;;;1.93;0.90;;;15.60;69.70;;;;;;5073071;28;20406;-63
2021/03/12 12:31:26;;;;;;;1.43;0.83;;;16.50;69.10;;;;;;5072839;28;20934;-64
2021/03/12 12:33:52;;;;;;;3.73;1.10;;;15.70;70.50;;;;;;5072318;28;20408;-64
2021/03/12 12:36:17;;;;;;;3.90;1.17;;;15.20;70.40;;;;;;5073808;28;20199;-69
2021/03/12 12:38:43;;;;;;;1.70;1.10;;;15.20;73.70;;;;;;5072295;28;20196;-64
2021/03/12 12:41:09;;;;;;;2.43;1.13;;;14.70;72.40;;;;;;5072805;28;20196;-64
2021/03/12 12:43:35;;;;;;;2.60;1.33;;;14.00;74.00;;;;;;5073643;28;20497;-64
2021/03/12 12:46:00;;;;;;;4.73;1.33;;;13.40;74.70;;;;;;5072574;28;20422;-64
2021/03/12 12:48:26;;;;;;;2.83;1.10;;;13.30;76.00;;;;;;5072557;28;20171;-64
2021/03/12 12:50:52;;;;;;;3.10;1.30;;;13.20;76.00;;;;;;5074460;28;20631;-64
2021/03/12 12:53:17;;;;;;;1.90;1.10;;;13.00;77.80;;;;;;5092174;28;20237;-64
2021/03/12 12:55:43;;;;;;;3.33;1.10;;;12.90;77.30;;;;;;5077135;28;20192;-63
2021/03/12 12:58:09;;;;;;;1.30;0.80;;;12.50;76.30;;;;;;5096812;28;20196;-64
2021/03/12 13:00:34;;;;;;;1.40;0.93;;;12.50;77.10;;;;;;5078679;28;20177;-64
2021/03/12 13:03:00;;;;;;;1.20;1.00;;;12.40;79.50;;;;;;5076232;28;20170;-64
2021/03/12 13:05:25;;;;;;;3.00;0.97;;;12.40;80.80;;;;;;5076370;28;20166;-64